KHSI

Hastings Municipal Airport

Hastings, Nebraska, USA
METAR KHSI 161253Z AUTO 34005KT 10SM CLR M01/M04 A3026 RMK AO2 SLP263 T10061039 TSNO
Observed Flight Rules
Dec-16 @ 12:53 UTC (50 minutes ago) Visual Flight Rules
Wind Visibility Clouds
340° at 5 knots 10 miles
  • Clear skies
Temperatures Readings
Current -1°C / 30°F
Dewpoint -4°C / 25°F
Humidity 80%
Altimeter 30.26" Hg
Pressure 1026.3 hPa
Elevation 591
METAR KHSI 161253Z AUTO 34005KT 10SM CLR M01/M04 A3026 RMK AO2 SLP263 T10061039 TSNO
Observed Flight Rules
Dec-16 @ 12:53 UTC
(50 minutes ago)
VFR
Wind Visibility
340° at 5 knots 10 miles
Clouds
  • Clear skies
Temperature Dewpoint
-1°C / 30°F -4°C / 25°F
Humidity Altimeter Pressure
80% 30.26" Hg 1026.3 hPa